Time;durP1;ratioP1;P1;durP2;ratioP2;P2;SDS_P1;SDS_P2;PMS_P1;PMS_P2;Temp;Humidity;BMP_temperature;BMP_pressure;BME280_temperature;BME280_humidity;BME280_pressure;Samples;Min_cycle;Max_cycle;Signal;HPM_P1;HPM_P2
2022/10/15 00:00:32;;;;;;;1.20;0.50;;;13.00;99.90;;;;;;5094172;28;20422;-65
2022/10/15 00:02:58;;;;;;;1.20;0.50;;;13.00;99.90;;;;;;5094030;28;20202;-65
2022/10/15 00:05:23;;;;;;;1.20;0.50;;;13.00;99.90;;;;;;5094267;28;20184;-66
2022/10/15 00:07:49;;;;;;;1.10;0.40;;;13.00;99.90;;;;;;5094125;28;20200;-65
2022/10/15 00:10:15;;;;;;;1.87;0.50;;;13.10;99.90;;;;;;5094174;28;20173;-65
2022/10/15 00:12:41;;;;;;;1.20;0.50;;;13.10;99.90;;;;;;5093692;28;20218;-66
2022/10/15 00:15:08;;;;;;;1.50;0.67;;;13.10;99.90;;;;;;5093656;28;20797;-65
2022/10/15 00:17:34;;;;;;;6.70;0.97;;;13.10;99.90;;;;;;5093650;28;20181;-65
2022/10/15 00:20:02;;;;;;;1.10;0.50;;;13.10;99.90;;;;;;5093538;28;20752;-66
2022/10/15 00:22:27;;;;;;;1.30;0.60;;;13.10;99.90;;;;;;5093027;28;20418;-66
2022/10/15 00:24:53;;;;;;;1.33;0.50;;;13.10;99.90;;;;;;5093746;28;20421;-65
2022/10/15 00:27:18;;;;;;;1.30;0.60;;;13.10;99.90;;;;;;5093763;28;20244;-66
2022/10/15 00:29:44;;;;;;;1.20;0.60;;;13.20;99.90;;;;;;5093359;28;20531;-66
2022/10/15 00:32:10;;;;;;;1.60;0.70;;;13.10;99.90;;;;;;5093096;28;20264;-66
2022/10/15 00:34:35;;;;;;;1.57;0.50;;;13.10;99.90;;;;;;5093461;28;20653;-65
2022/10/15 00:37:01;;;;;;;1.20;0.50;;;13.10;99.90;;;;;;5093346;28;20189;-65
2022/10/15 00:39:26;;;;;;;1.10;0.50;;;13.10;99.90;;;;;;5093271;28;20638;-65
2022/10/15 00:41:52;;;;;;;1.33;0.50;;;13.20;99.90;;;;;;5093205;28;20177;-65
2022/10/15 00:44:21;;;;;;;1.30;0.60;;;13.10;99.90;;;;;;5092807;28;20188;-65
2022/10/15 00:47:09;;;;;;;1.20;0.50;;;13.20;99.90;;;;;;5093409;28;20187;-65
2022/10/15 00:49:39;;;;;;;2.03;0.57;;;13.20;99.90;;;;;;5076574;28;20425;-65
2022/10/15 00:52:26;;;;;;;1.30;0.60;;;13.20;99.90;;;;;;5092670;28;20789;-65
2022/10/15 00:55:09;;;;;;;1.40;0.60;;;13.10;99.90;;;;;;5093192;28;20916;-65
2022/10/15 00:57:35;;;;;;;1.10;0.50;;;13.20;99.90;;;;;;5081827;28;20414;-65
2022/10/15 01:00:06;;;;;;;1.20;0.50;;;13.20;99.90;;;;;;5092162;28;20446;-65
2022/10/15 01:02:32;;;;;;;1.37;0.50;;;13.20;99.90;;;;;;5091908;28;20442;-65
2022/10/15 01:04:57;;;;;;;1.40;0.50;;;13.20;99.90;;;;;;5092777;28;20425;-65
2022/10/15 01:07:23;;;;;;;1.10;0.50;;;13.20;99.90;;;;;;5092822;28;20200;-65
2022/10/15 01:09:49;;;;;;;2.77;0.53;;;13.20;99.90;;;;;;5092553;28;20251;-65
2022/10/15 01:12:27;;;;;;;3.20;0.57;;;13.20;99.90;;;;;;5092150;28;20417;-65
2022/10/15 01:14:55;;;;;;;1.10;0.40;;;13.20;99.90;;;;;;5092105;28;20420;-65
2022/10/15 01:17:45;;;;;;;2.37;1.07;;;13.20;99.90;;;;;;5092668;28;20422;-65
2022/10/15 01:20:28;;;;;;;1.10;0.50;;;13.20;99.90;;;;;;5082042;28;20505;-65
2022/10/15 01:23:15;;;;;;;1.30;0.50;;;13.20;99.90;;;;;;5091796;28;21341;-65
2022/10/15 01:25:51;;;;;;;1.30;0.67;;;13.30;99.90;;;;;;5092493;28;20597;-65
2022/10/15 01:28:22;;;;;;;2.37;0.60;;;13.30;99.90;;;;;;5091861;28;20885;-65
2022/10/15 01:30:57;;;;;;;1.10;0.40;;;13.20;99.90;;;;;;5079571;28;20808;-66
2022/10/15 01:33:39;;;;;;;1.20;0.50;;;13.30;99.90;;;;;;5060660;28;20455;-65
2022/10/15 01:36:19;;;;;;;1.10;0.50;;;13.30;99.90;;;;;;5085657;28;20775;-65
2022/10/15 01:38:56;;;;;;;1.17;0.50;;;13.30;99.90;;;;;;5086596;28;20472;-65
2022/10/15 01:41:36;;;;;;;4.40;0.60;;;13.30;99.90;;;;;;5092241;28;20422;-65
2022/10/15 01:44:04;;;;;;;1.10;0.50;;;13.30;99.90;;;;;;5091614;28;20452;-66
2022/10/15 01:46:42;;;;;;;2.80;0.87;;;13.30;99.90;;;;;;5092103;28;20418;-65
2022/10/15 01:49:11;;;;;;;2.17;0.80;;;13.30;99.90;;;;;;5084740;28;20761;-65
2022/10/15 01:51:39;;;;;;;1.10;0.40;;;13.40;99.90;;;;;;5071467;28;21105;-65
2022/10/15 01:54:08;;;;;;;1.10;0.50;;;13.40;99.90;;;;;;5079221;28;20425;-65
2022/10/15 01:56:36;;;;;;;1.20;0.50;;;13.40;99.90;;;;;;5092037;28;20421;-65
2022/10/15 01:59:02;;;;;;;1.23;0.50;;;13.40;99.90;;;;;;5091701;28;20430;-65
2022/10/15 02:01:28;;;;;;;1.10;0.50;;;13.40;99.90;;;;;;5091386;28;20446;-65
2022/10/15 02:03:53;;;;;;;1.17;0.50;;;13.40;99.90;;;;;;5091648;28;20469;-65
2022/10/15 02:06:35;;;;;;;1.20;0.50;;;13.40;99.90;;;;;;5090668;28;20271;-65
2022/10/15 02:09:04;;;;;;;1.43;0.50;;;13.40;99.90;;;;;;5071463;28;20216;-65
2022/10/15 02:11:41;;;;;;;1.10;0.50;;;13.50;99.90;;;;;;5074766;28;20426;-65
2022/10/15 02:14:17;;;;;;;4.60;0.53;;;13.50;99.90;;;;;;5091375;28;20414;-65
2022/10/15 02:16:50;;;;;;;2.47;0.57;;;13.50;99.90;;;;;;5091892;28;20456;-65
2022/10/15 02:19:36;;;;;;;1.10;0.50;;;13.50;99.90;;;;;;5091147;28;20424;-65
2022/10/15 02:22:25;;;;;;;1.10;0.50;;;13.50;99.90;;;;;;5081435;28;20426;-65
2022/10/15 02:25:14;;;;;;;1.50;0.60;;;13.50;99.90;;;;;;5085334;28;20423;-65
2022/10/15 02:27:43;;;;;;;1.20;0.50;;;13.50;99.90;;;;;;5087691;28;20465;-65
2022/10/15 02:30:10;;;;;;;1.30;0.67;;;13.50;99.90;;;;;;5091182;28;20466;-65
2022/10/15 02:32:39;;;;;;;1.10;0.40;;;13.60;99.90;;;;;;5091033;28;20467;-65
2022/10/15 02:35:07;;;;;;;1.20;0.50;;;13.60;99.90;;;;;;5091357;28;20979;-65
2022/10/15 02:37:34;;;;;;;3.73;0.50;;;13.60;99.90;;;;;;5091692;28;20471;-65
2022/10/15 02:40:00;;;;;;;1.30;0.50;;;13.60;99.90;;;;;;5091634;28;20467;-65
2022/10/15 02:42:26;;;;;;;1.10;0.40;;;13.70;99.90;;;;;;5092531;28;20694;-65
2022/10/15 02:44:52;;;;;;;1.20;0.50;;;13.70;99.90;;;;;;5095425;28;20188;-66
2022/10/15 02:47:17;;;;;;;2.80;0.50;;;13.70;99.90;;;;;;5077502;28;20485;-65
2022/10/15 02:49:44;;;;;;;3.20;0.87;;;13.70;99.90;;;;;;5085305;28;20180;-65
2022/10/15 02:52:09;;;;;;;1.10;0.40;;;13.70;99.90;;;;;;5095075;28;20207;-65
2022/10/15 02:54:35;;;;;;;1.10;0.40;;;13.80;99.90;;;;;;5095372;28;20885;-65
2022/10/15 02:57:01;;;;;;;1.10;0.50;;;13.90;99.90;;;;;;5095622;28;20282;-66
2022/10/15 02:59:26;;;;;;;1.10;0.40;;;13.80;99.90;;;;;;5094339;28;20255;-65
2022/10/15 03:01:52;;;;;;;1.10;0.50;;;13.80;99.90;;;;;;5092007;28;20208;-65
2022/10/15 03:04:17;;;;;;;1.40;0.83;;;13.80;99.90;;;;;;5095031;28;20181;-65
2022/10/15 03:06:43;;;;;;;1.63;0.80;;;13.80;99.90;;;;;;5077076;28;20185;-65
2022/10/15 03:09:08;;;;;;;1.30;0.50;;;13.90;99.90;;;;;;5086272;28;20270;-65
2022/10/15 03:11:34;;;;;;;1.30;0.50;;;13.90;99.90;;;;;;5094699;28;20180;-65
2022/10/15 03:14:00;;;;;;;1.40;0.80;;;13.90;99.90;;;;;;5094525;28;20690;-65
2022/10/15 03:16:25;;;;;;;1.20;0.50;;;13.90;99.90;;;;;;5081472;28;20188;-65
2022/10/15 03:18:51;;;;;;;2.07;0.60;;;13.80;99.90;;;;;;5094780;28;20227;-65
2022/10/15 03:21:16;;;;;;;1.20;0.53;;;13.90;99.90;;;;;;5095002;28;20530;-65
2022/10/15 03:23:42;;;;;;;1.17;0.50;;;13.90;99.90;;;;;;5094577;28;20260;-65
2022/10/15 03:26:07;;;;;;;2.27;0.50;;;13.90;99.90;;;;;;5079759;28;20210;-66
2022/10/15 03:28:33;;;;;;;1.30;0.50;;;13.90;99.90;;;;;;5085177;28;20243;-65
2022/10/15 03:30:59;;;;;;;1.10;0.40;;;13.90;99.90;;;;;;5090916;28;20191;-65
2022/10/15 03:33:24;;;;;;;1.10;0.40;;;13.90;99.90;;;;;;5084423;28;20168;-65
2022/10/15 03:35:51;;;;;;;1.10;0.40;;;13.90;99.90;;;;;;5090841;28;20205;-65
2022/10/15 03:38:17;;;;;;;1.10;0.40;;;14.00;99.90;;;;;;5074544;28;20187;-65
2022/10/15 03:40:44;;;;;;;1.10;0.50;;;13.90;99.90;;;;;;5078074;28;20767;-65
2022/10/15 03:43:09;;;;;;;17.10;0.80;;;13.90;99.90;;;;;;5094044;28;20233;-65
2022/10/15 03:45:35;;;;;;;1.10;0.40;;;14.00;99.90;;;;;;5094073;28;20419;-65
2022/10/15 03:48:00;;;;;;;1.10;0.50;;;14.00;99.90;;;;;;5094173;28;20670;-65
2022/10/15 03:50:26;;;;;;;1.43;0.50;;;14.00;99.90;;;;;;5089724;28;20188;-65
2022/10/15 03:52:51;;;;;;;1.10;0.40;;;14.00;99.90;;;;;;5084000;28;20184;-65
2022/10/15 03:55:17;;;;;;;1.10;0.50;;;14.00;99.90;;;;;;5093369;28;20540;-65
2022/10/15 03:57:43;;;;;;;1.10;0.40;;;14.00;99.90;;;;;;5094214;28;20215;-65
2022/10/15 04:00:10;;;;;;;1.10;0.50;;;14.00;99.90;;;;;;5080472;28;20214;-66
2022/10/15 04:02:36;;;;;;;1.20;0.50;;;14.00;99.90;;;;;;5093512;28;20196;-65
2022/10/15 04:05:02;;;;;;;1.20;0.50;;;14.00;99.90;;;;;;5090148;28;20438;-65
2022/10/15 04:07:27;;;;;;;1.10;0.40;;;14.10;99.90;;;;;;5073870;28;20538;-66
2022/10/15 04:09:53;;;;;;;1.10;0.50;;;14.10;99.90;;;;;;5091189;28;20551;-65
2022/10/15 04:12:18;;;;;;;1.10;0.50;;;14.10;99.90;;;;;;5093583;28;20184;-65
2022/10/15 04:14:44;;;;;;;1.60;0.67;;;14.10;99.90;;;;;;5093139;28;20192;-65
2022/10/15 04:17:10;;;;;;;1.10;0.40;;;14.10;99.90;;;;;;5083164;28;20199;-66
2022/10/15 04:19:36;;;;;;;1.10;0.50;;;14.00;99.90;;;;;;5086988;28;20239;-65
2022/10/15 04:22:02;;;;;;;1.20;0.50;;;14.00;99.90;;;;;;5084184;28;20513;-66
2022/10/15 04:24:27;;;;;;;1.40;0.60;;;14.10;99.90;;;;;;5093502;28;20184;-66
2022/10/15 04:26:53;;;;;;;1.20;0.50;;;14.00;99.90;;;;;;5085915;28;20927;-66
2022/10/15 04:29:19;;;;;;;1.10;0.40;;;13.90;99.90;;;;;;5076592;28;20191;-66
2022/10/15 04:31:44;;;;;;;1.17;0.50;;;13.90;99.90;;;;;;5073403;28;20257;-66
2022/10/15 04:34:10;;;;;;;1.10;0.40;;;13.90;99.90;;;;;;5090397;28;20221;-66
2022/10/15 04:36:36;;;;;;;11.20;0.97;;;13.90;99.90;;;;;;5093676;28;20630;-65
2022/10/15 04:39:03;;;;;;;1.10;0.50;;;13.80;99.90;;;;;;5093197;28;20192;-65
2022/10/15 04:41:29;;;;;;;1.17;0.50;;;13.90;99.90;;;;;;5092998;28;20279;-66
2022/10/15 04:43:56;;;;;;;1.20;0.50;;;13.90;99.90;;;;;;5092844;28;20426;-66
2022/10/15 04:46:21;;;;;;;1.10;0.40;;;13.90;99.90;;;;;;5093471;28;20454;-66
2022/10/15 04:48:48;;;;;;;1.23;0.50;;;13.80;99.90;;;;;;5089720;28;21094;-66
2022/10/15 04:51:16;;;;;;;1.17;0.47;;;13.90;99.90;;;;;;5071838;28;20177;-66
2022/10/15 04:53:42;;;;;;;1.30;0.53;;;13.80;99.90;;;;;;5089587;28;20414;-66
2022/10/15 04:56:14;;;;;;;1.10;0.40;;;13.80;99.90;;;;;;5082955;28;20416;-66
2022/10/15 04:58:41;;;;;;;1.10;0.40;;;13.80;99.90;;;;;;5090261;28;20466;-66
2022/10/15 05:01:12;;;;;;;1.10;0.40;;;13.80;99.90;;;;;;5081640;28;20446;-66
2022/10/15 05:03:40;;;;;;;2.40;0.87;;;13.80;99.90;;;;;;5090794;28;20427;-66
2022/10/15 05:06:17;;;;;;;1.90;0.60;;;13.80;99.90;;;;;;5092121;28;20430;-66
2022/10/15 05:08:44;;;;;;;1.30;0.50;;;13.80;99.90;;;;;;5080444;28;20469;-66
2022/10/15 05:11:24;;;;;;;1.30;0.50;;;13.80;99.90;;;;;;5092589;28;20419;-66
2022/10/15 05:13:50;;;;;;;1.10;0.40;;;13.70;99.90;;;;;;5092154;28;20948;-66
2022/10/15 05:16:17;;;;;;;1.40;0.60;;;13.80;99.90;;;;;;5092842;28;20931;-66
2022/10/15 05:18:45;;;;;;;1.10;0.50;;;13.80;99.90;;;;;;5082861;28;20421;-66
2022/10/15 05:21:11;;;;;;;1.20;0.50;;;13.80;99.90;;;;;;5076944;28;20434;-66
2022/10/15 05:23:37;;;;;;;2.30;0.70;;;13.70;99.90;;;;;;5092268;28;20468;-66
2022/10/15 05:26:05;;;;;;;1.10;0.40;;;13.70;99.90;;;;;;5079234;28;20423;-65
2022/10/15 05:28:31;;;;;;;1.20;0.50;;;13.70;99.90;;;;;;5082056;28;20558;-66
2022/10/15 05:31:21;;;;;;;1.10;0.40;;;13.70;99.90;;;;;;5078533;28;20533;-65
2022/10/15 05:33:49;;;;;;;12.13;1.13;;;13.70;99.90;;;;;;5091998;28;20180;-66
2022/10/15 05:36:18;;;;;;;1.20;0.57;;;13.70;99.90;;;;;;5079003;28;20414;-66
2022/10/15 05:38:44;;;;;;;2.57;0.60;;;13.70;99.90;;;;;;5092580;28;20505;-66
2022/10/15 05:41:10;;;;;;;3.43;0.50;;;13.70;99.90;;;;;;5092137;28;20433;-66
2022/10/15 05:43:36;;;;;;;1.30;0.50;;;13.60;99.90;;;;;;5091660;28;21235;-66
2022/10/15 05:46:01;;;;;;;1.10;0.50;;;13.60;99.90;;;;;;5086057;28;20197;-66
2022/10/15 05:48:27;;;;;;;1.40;0.50;;;13.60;99.90;;;;;;5085311;28;20247;-65
2022/10/15 05:50:53;;;;;;;1.20;0.50;;;13.60;99.90;;;;;;5084387;28;20189;-66
2022/10/15 05:53:19;;;;;;;1.10;0.50;;;13.50;99.90;;;;;;5080523;28;20223;-66
2022/10/15 05:55:44;;;;;;;2.00;0.77;;;13.70;99.90;;;;;;5085771;28;20604;-66
2022/10/15 05:58:10;;;;;;;1.13;0.50;;;13.60;99.90;;;;;;5071997;28;20419;-66
2022/10/15 06:00:38;;;;;;;1.10;0.40;;;13.60;99.90;;;;;;5087524;28;20188;-67
2022/10/15 06:03:04;;;;;;;1.43;0.60;;;13.60;99.90;;;;;;5091641;28;20241;-67
2022/10/15 06:05:30;;;;;;;1.70;0.83;;;13.70;99.90;;;;;;5072078;28;20435;-67
2022/10/15 06:07:56;;;;;;;1.17;0.50;;;13.60;99.90;;;;;;5072757;28;20292;-67
2022/10/15 06:10:22;;;;;;;2.33;0.63;;;13.60;99.90;;;;;;5092161;28;20501;-67
2022/10/15 06:12:49;;;;;;;1.63;0.70;;;13.60;99.90;;;;;;5077983;28;20181;-67
2022/10/15 06:15:16;;;;;;;1.30;0.60;;;13.60;99.90;;;;;;5091526;28;20188;-67
2022/10/15 06:17:41;;;;;;;2.03;0.57;;;13.60;99.90;;;;;;5090887;28;20426;-67
2022/10/15 06:20:07;;;;;;;1.80;0.90;;;13.60;99.90;;;;;;5091528;28;20441;-67
2022/10/15 06:22:33;;;;;;;1.40;0.50;;;13.60;99.90;;;;;;5088751;28;20215;-67
2022/10/15 06:24:58;;;;;;;1.20;0.50;;;13.60;99.90;;;;;;5091606;28;20503;-67
2022/10/15 06:27:24;;;;;;;1.30;0.50;;;13.60;99.90;;;;;;5091189;28;20822;-67
2022/10/15 06:29:50;;;;;;;2.00;0.80;;;13.60;99.90;;;;;;5083249;28;20192;-67
2022/10/15 06:32:16;;;;;;;3.53;0.60;;;13.50;99.90;;;;;;5072485;28;20183;-67
2022/10/15 06:34:43;;;;;;;1.40;0.70;;;13.50;99.90;;;;;;5091239;28;20985;-67
2022/10/15 06:37:08;;;;;;;2.50;0.70;;;13.60;99.90;;;;;;5091204;28;20426;-67
2022/10/15 06:39:34;;;;;;;2.43;0.57;;;13.60;99.90;;;;;;5091327;28;20426;-66
2022/10/15 06:42:00;;;;;;;1.40;0.57;;;13.60;99.90;;;;;;5091050;28;20181;-66
2022/10/15 06:44:25;;;;;;;3.10;0.70;;;13.60;99.90;;;;;;5088722;28;20180;-66
2022/10/15 06:46:51;;;;;;;1.20;0.47;;;13.60;99.90;;;;;;5090419;28;20259;-66
2022/10/15 06:49:16;;;;;;;1.30;0.63;;;13.60;99.90;;;;;;5089650;28;20204;-67
2022/10/15 06:51:42;;;;;;;1.40;0.80;;;13.60;99.90;;;;;;5090330;28;20956;-66
2022/10/15 06:54:08;;;;;;;2.70;0.60;;;13.60;99.90;;;;;;5091165;28;20204;-66
2022/10/15 06:56:33;;;;;;;2.37;1.17;;;13.60;99.90;;;;;;5090962;28;20557;-66
2022/10/15 06:58:59;;;;;;;1.20;0.53;;;13.70;99.90;;;;;;5091048;28;20188;-66
2022/10/15 07:01:24;;;;;;;1.50;0.70;;;13.70;99.90;;;;;;5091307;28;20624;-67
2022/10/15 07:03:50;;;;;;;1.33;0.60;;;13.70;99.90;;;;;;5090819;28;20196;-67
2022/10/15 07:06:16;;;;;;;1.30;0.50;;;13.70;99.90;;;;;;5091633;28;20185;-66
2022/10/15 07:08:43;;;;;;;1.20;0.50;;;13.80;99.90;;;;;;5091468;28;20250;-66
2022/10/15 07:11:09;;;;;;;1.70;0.70;;;13.80;99.90;;;;;;5091503;28;20450;-66
2022/10/15 07:13:35;;;;;;;1.20;0.50;;;13.80;99.90;;;;;;5083053;28;21292;-67
2022/10/15 07:16:10;;;;;;;1.20;0.50;;;13.80;99.90;;;;;;5071987;28;20502;-66
2022/10/15 07:18:36;;;;;;;1.50;0.60;;;13.90;99.90;;;;;;5091284;28;20425;-67
2022/10/15 07:21:03;;;;;;;1.20;0.50;;;14.00;99.90;;;;;;5091212;28;20438;-67
2022/10/15 07:23:29;;;;;;;1.50;0.70;;;13.90;99.90;;;;;;5090959;28;20426;-66
2022/10/15 07:25:58;;;;;;;1.20;0.50;;;13.90;99.90;;;;;;5091136;28;20426;-67
2022/10/15 07:28:24;;;;;;;1.40;0.50;;;14.00;99.90;;;;;;5070735;28;20193;-67
2022/10/15 07:30:50;;;;;;;1.77;0.77;;;14.00;99.90;;;;;;5076660;28;20411;-67
2022/10/15 07:33:16;;;;;;;1.57;0.50;;;14.00;99.90;;;;;;5093929;28;20884;-67
2022/10/15 07:35:41;;;;;;;1.20;0.50;;;14.00;99.90;;;;;;5094877;28;20424;-68
2022/10/15 07:38:07;;;;;;;1.20;0.50;;;14.10;99.90;;;;;;5094926;28;20264;-67
2022/10/15 07:40:33;;;;;;;1.30;0.50;;;14.10;99.90;;;;;;5094766;28;20184;-68
2022/10/15 07:42:59;;;;;;;1.30;0.60;;;14.10;99.90;;;;;;5094389;28;20695;-68
2022/10/15 07:45:26;;;;;;;1.50;0.60;;;14.10;99.90;;;;;;5078386;28;20419;-68
2022/10/15 07:47:52;;;;;;;1.30;0.60;;;14.20;99.90;;;;;;5083305;28;20253;-68
2022/10/15 07:50:19;;;;;;;1.30;0.53;;;14.20;99.90;;;;;;5091068;28;20414;-68
2022/10/15 07:52:45;;;;;;;1.87;0.50;;;14.30;99.90;;;;;;5083338;28;20414;-68
2022/10/15 07:55:10;;;;;;;1.17;0.47;;;14.30;99.90;;;;;;5094408;28;20776;-68
2022/10/15 07:57:36;;;;;;;1.30;0.50;;;14.30;99.90;;;;;;5094338;28;20195;-68
2022/10/15 08:00:03;;;;;;;1.33;0.50;;;14.30;99.90;;;;;;5093508;28;20192;-68
2022/10/15 08:02:28;;;;;;;1.10;0.40;;;14.40;99.90;;;;;;5093415;28;20192;-67
2022/10/15 08:04:54;;;;;;;1.77;0.90;;;14.40;99.90;;;;;;5093640;28;20418;-68
2022/10/15 08:07:19;;;;;;;1.27;0.53;;;14.40;99.90;;;;;;5093529;28;20211;-68
2022/10/15 08:09:45;;;;;;;1.17;0.47;;;14.40;99.90;;;;;;5093771;28;20177;-68
2022/10/15 08:12:11;;;;;;;1.47;0.67;;;14.40;99.90;;;;;;5093549;28;20184;-68
2022/10/15 08:14:37;;;;;;;1.30;0.50;;;14.40;99.90;;;;;;5093556;28;20181;-66
2022/10/15 08:17:03;;;;;;;1.10;0.40;;;14.40;99.90;;;;;;5094047;28;20179;-68
2022/10/15 08:19:29;;;;;;;1.10;0.40;;;14.40;99.90;;;;;;5093792;28;20507;-68
2022/10/15 08:21:55;;;;;;;1.10;0.40;;;14.50;99.90;;;;;;5093699;28;21001;-69
2022/10/15 08:24:21;;;;;;;1.23;0.47;;;14.50;99.90;;;;;;5094325;28;20650;-70
2022/10/15 08:26:48;;;;;;;1.10;0.40;;;14.60;99.90;;;;;;5087124;28;20459;-68
2022/10/15 08:29:14;;;;;;;1.63;0.60;;;14.60;99.90;;;;;;5089046;28;20208;-68
2022/10/15 08:31:39;;;;;;;1.20;0.40;;;14.70;99.90;;;;;;5093436;28;20426;-68
2022/10/15 08:34:05;;;;;;;1.20;0.50;;;14.70;99.90;;;;;;5091214;28;20456;-69
2022/10/15 08:36:31;;;;;;;1.30;0.40;;;14.70;99.90;;;;;;5082292;28;20209;-68
2022/10/15 08:38:57;;;;;;;1.20;0.50;;;14.80;99.90;;;;;;5093024;28;20188;-70
2022/10/15 08:41:43;;;;;;;1.57;0.63;;;14.90;99.90;;;;;;5093185;28;20184;-68
2022/10/15 08:44:20;;;;;;;1.20;0.50;;;15.00;99.90;;;;;;5090356;28;20823;-68
2022/10/15 08:46:49;;;;;;;1.90;0.60;;;15.00;99.90;;;;;;5093466;28;20422;-69
2022/10/15 08:49:39;;;;;;;1.70;0.60;;;15.00;99.90;;;;;;5091655;28;20979;-69
2022/10/15 08:52:23;;;;;;;1.30;0.50;;;15.10;99.90;;;;;;5092625;28;20426;-69
2022/10/15 08:54:49;;;;;;;2.73;0.63;;;15.20;99.90;;;;;;5093403;28;20424;-69
2022/10/15 08:57:37;;;;;;;1.50;0.70;;;15.30;99.90;;;;;;5073827;28;20408;-69
2022/10/15 09:00:18;;;;;;;1.30;0.60;;;15.30;99.90;;;;;;5067927;28;20548;-70
2022/10/15 09:02:51;;;;;;;2.63;0.73;;;15.30;99.90;;;;;;5073022;28;20985;-68
2022/10/15 09:05:22;;;;;;;1.20;0.50;;;15.20;99.90;;;;;;5085992;28;20420;-68
2022/10/15 09:08:00;;;;;;;1.30;0.50;;;15.30;99.90;;;;;;5086772;28;20529;-67
2022/10/15 09:10:37;;;;;;;1.30;0.60;;;15.30;99.90;;;;;;5071745;28;20792;-68
2022/10/15 09:13:17;;;;;;;1.40;0.50;;;15.30;99.90;;;;;;5089601;28;20418;-68
2022/10/15 09:16:09;;;;;;;3.43;0.80;;;15.40;99.90;;;;;;5093249;28;20449;-68
2022/10/15 09:18:37;;;;;;;1.83;0.60;;;15.40;99.90;;;;;;5079568;28;20979;-68
2022/10/15 09:21:06;;;;;;;1.20;0.50;;;15.40;99.90;;;;;;5093365;28;20464;-68
2022/10/15 09:23:33;;;;;;;1.30;0.53;;;15.50;99.90;;;;;;5092803;28;20421;-68
2022/10/15 09:26:16;;;;;;;2.07;0.83;;;15.50;99.90;;;;;;5093046;28;20422;-68
2022/10/15 09:29:04;;;;;;;1.20;0.50;;;15.50;99.90;;;;;;5092607;28;20482;-68
2022/10/15 09:31:39;;;;;;;1.20;0.40;;;15.60;99.90;;;;;;5090343;28;20411;-68
2022/10/15 09:34:18;;;;;;;1.50;0.60;;;15.50;99.90;;;;;;5092564;28;20422;-68
2022/10/15 09:36:57;;;;;;;1.20;0.60;;;15.60;99.90;;;;;;5092935;28;20736;-68
2022/10/15 09:39:26;;;;;;;1.20;0.50;;;15.50;99.90;;;;;;5076901;28;20429;-68
2022/10/15 09:41:57;;;;;;;2.70;0.90;;;15.50;99.90;;;;;;5072366;28;20971;-68
2022/10/15 09:44:35;;;;;;;1.20;0.50;;;15.60;99.90;;;;;;5092346;28;20410;-68
2022/10/15 09:47:00;;;;;;;1.53;0.80;;;15.50;99.90;;;;;;5092858;28;20509;-68
2022/10/15 09:49:27;;;;;;;3.87;0.60;;;15.40;99.90;;;;;;5091401;28;20549;-68
2022/10/15 09:52:04;;;;;;;1.30;0.57;;;15.40;99.90;;;;;;5076191;28;20170;-68
2022/10/15 09:54:51;;;;;;;1.47;0.60;;;15.30;99.90;;;;;;5072615;28;20450;-68
2022/10/15 09:57:20;;;;;;;2.30;0.90;;;15.50;99.90;;;;;;5091863;28;20410;-68
2022/10/15 09:59:57;;;;;;;11.37;0.80;;;15.60;99.90;;;;;;5091823;28;20508;-68
2022/10/15 10:02:24;;;;;;;1.50;0.60;;;15.70;99.90;;;;;;5082543;28;20459;-67
2022/10/15 10:04:51;;;;;;;2.40;0.83;;;15.80;99.90;;;;;;5076519;28;20407;-68
2022/10/15 10:07:30;;;;;;;2.43;0.87;;;15.90;99.90;;;;;;5081155;28;20415;-68
2022/10/15 10:09:59;;;;;;;1.30;0.60;;;16.10;99.90;;;;;;5076335;28;20414;-68
2022/10/15 10:12:34;;;;;;;2.47;0.70;;;16.10;99.90;;;;;;5091515;28;20427;-68
2022/10/15 10:15:35;;;;;;;1.60;0.60;;;16.20;99.90;;;;;;5091515;28;20462;-69
2022/10/15 10:18:01;;;;;;;1.50;0.70;;;16.20;99.90;;;;;;5077910;28;20425;-68
2022/10/15 10:20:29;;;;;;;1.60;0.60;;;16.40;99.90;;;;;;5090777;28;21101;-67
2022/10/15 10:23:19;;;;;;;5.20;1.30;;;16.60;99.90;;;;;;5090828;28;20605;-68
2022/10/15 10:25:45;;;;;;;4.17;1.00;;;16.90;99.90;;;;;;5091460;28;20516;-69
2022/10/15 10:28:10;;;;;;;1.93;0.67;;;17.20;99.90;;;;;;5091662;28;20461;-67
2022/10/15 10:30:59;;;;;;;2.17;0.73;;;17.20;99.90;;;;;;5090717;28;20410;-67
2022/10/15 10:33:28;;;;;;;1.30;0.60;;;17.00;99.90;;;;;;5082165;28;20533;-67
2022/10/15 10:35:55;;;;;;;3.50;0.60;;;16.90;99.90;;;;;;5091600;28;20501;-68
2022/10/15 10:38:24;;;;;;;5.07;1.23;;;16.90;99.90;;;;;;5091666;28;20429;-68
2022/10/15 10:40:56;;;;;;;2.37;0.90;;;17.00;99.90;;;;;;5078130;28;20510;-67
2022/10/15 10:43:28;;;;;;;2.40;0.70;;;17.10;99.90;;;;;;5090614;28;20421;-68
2022/10/15 10:45:57;;;;;;;1.40;0.60;;;17.30;99.90;;;;;;5078552;28;20987;-67
2022/10/15 10:48:35;;;;;;;1.80;0.70;;;17.30;99.90;;;;;;5091242;28;20796;-67
2022/10/15 10:51:06;;;;;;;1.57;0.50;;;17.20;99.90;;;;;;5070741;28;20399;-67
2022/10/15 10:53:36;;;;;;;1.30;0.47;;;17.20;99.90;;;;;;5087281;28;20406;-68
2022/10/15 10:56:04;;;;;;;1.70;0.63;;;17.10;99.90;;;;;;5091473;28;20418;-67
2022/10/15 10:58:33;;;;;;;1.30;0.60;;;17.20;99.90;;;;;;5090774;28;20455;-67
2022/10/15 11:00:58;;;;;;;1.50;0.50;;;17.20;99.90;;;;;;5092126;28;20966;-67
2022/10/15 11:03:33;;;;;;;1.20;0.50;;;17.10;99.90;;;;;;5092759;28;20410;-69
2022/10/15 11:06:11;;;;;;;2.90;1.10;;;17.10;99.90;;;;;;5107288;28;20192;-72
2022/10/15 11:08:45;;;;;;;1.40;0.50;;;17.10;99.90;;;;;;5098473;28;20978;-69
2022/10/15 11:11:27;;;;;;;1.40;0.60;;;17.10;99.90;;;;;;5103975;28;20512;-72
2022/10/15 11:14:18;;;;;;;1.30;0.50;;;17.10;99.90;;;;;;5098684;28;20418;-72
2022/10/15 11:17:09;;;;;;;2.43;0.90;;;17.20;99.90;;;;;;5099424;28;20422;-71
2022/10/15 11:20:11;;;;;;;3.53;0.50;;;17.20;99.90;;;;;;5100640;28;20415;-71
2022/10/15 11:23:15;;;;;;;2.37;0.70;;;17.10;99.90;;;;;;5070306;28;20437;-69
2022/10/15 11:26:19;;;;;;;3.93;0.50;;;17.20;99.90;;;;;;5108422;28;20422;-71
2022/10/15 11:29:11;;;;;;;2.00;0.83;;;17.30;99.90;;;;;;5080408;28;20796;-71
2022/10/15 11:31:54;;;;;;;1.70;0.70;;;17.40;99.90;;;;;;5084898;28;20410;-71
2022/10/15 11:34:48;;;;;;;2.10;0.80;;;17.40;99.90;;;;;;5092077;28;20442;-70
2022/10/15 11:37:36;;;;;;;1.40;0.70;;;17.40;99.90;;;;;;5076548;28;20568;-72
2022/10/15 11:40:10;;;;;;;1.30;0.60;;;17.30;99.90;;;;;;5085814;28;20421;-72
2022/10/15 11:42:57;;;;;;;4.70;0.60;;;17.40;99.90;;;;;;5088224;28;20472;-72
2022/10/15 11:45:31;;;;;;;1.30;0.50;;;17.70;99.90;;;;;;5073934;28;20461;-72
2022/10/15 11:48:10;;;;;;;1.40;0.70;;;17.70;99.90;;;;;;5084393;28;20502;-72
2022/10/15 11:50:40;;;;;;;1.67;0.80;;;17.90;99.90;;;;;;5089220;28;20893;-71
2022/10/15 11:53:24;;;;;;;1.30;0.60;;;18.00;99.90;;;;;;5074711;28;20807;-71
2022/10/15 11:56:01;;;;;;;2.63;0.80;;;18.00;99.90;;;;;;5082231;28;20411;-72
2022/10/15 11:58:37;;;;;;;1.53;0.63;;;18.10;99.90;;;;;;5094327;28;20413;-72
2022/10/15 12:01:34;;;;;;;2.27;0.80;;;18.40;99.90;;;;;;5094493;28;20461;-72
2022/10/15 12:04:08;;;;;;;1.30;0.50;;;18.40;99.90;;;;;;5086059;28;20480;-73
2022/10/15 12:06:39;;;;;;;1.30;0.50;;;18.40;99.90;;;;;;5074167;28;20428;-73
2022/10/15 12:09:06;;;;;;;2.07;0.60;;;18.20;99.90;;;;;;5084791;28;20477;-73
2022/10/15 12:11:50;;;;;;;1.30;0.50;;;18.10;99.90;;;;;;5094091;28;20437;-72
2022/10/15 12:14:34;;;;;;;1.30;0.50;;;18.00;99.90;;;;;;5093819;28;20842;-70
2022/10/15 12:17:40;;;;;;;1.40;0.50;;;17.90;99.90;;;;;;5083290;28;20680;-70
2022/10/15 12:20:18;;;;;;;1.40;0.60;;;17.80;99.90;;;;;;5064886;28;20426;-69
2022/10/15 12:22:46;;;;;;;1.30;0.50;;;17.70;99.90;;;;;;5093555;28;20429;-71
2022/10/15 12:25:33;;;;;;;1.30;0.50;;;17.50;99.90;;;;;;5075759;28;20431;-70
2022/10/15 12:28:02;;;;;;;1.63;0.70;;;17.40;99.90;;;;;;5090937;28;20515;-70
2022/10/15 12:30:33;;;;;;;1.70;0.80;;;17.10;99.90;;;;;;5092457;28;20419;-70
2022/10/15 12:33:01;;;;;;;1.73;0.53;;;17.00;99.90;;;;;;5092659;28;20410;-70
2022/10/15 12:35:34;;;;;;;1.40;0.50;;;17.10;99.90;;;;;;5092819;28;20445;-70
2022/10/15 12:38:28;;;;;;;3.20;0.50;;;17.00;99.90;;;;;;5078093;28;20427;-70
2022/10/15 12:41:01;;;;;;;1.60;0.70;;;16.90;99.90;;;;;;5059433;28;20842;-70
2022/10/15 12:43:28;;;;;;;1.50;0.50;;;16.90;99.90;;;;;;5092145;28;20422;-70
2022/10/15 12:46:07;;;;;;;2.43;0.70;;;16.90;99.90;;;;;;5093421;28;20437;-70
2022/10/15 12:48:43;;;;;;;1.60;0.70;;;16.90;99.90;;;;;;5079534;28;20485;-70
2022/10/15 12:51:21;;;;;;;1.20;0.50;;;16.90;99.90;;;;;;5091479;28;20900;-70
2022/10/15 12:53:51;;;;;;;2.70;0.70;;;17.10;99.90;;;;;;5074603;28;20422;-70
2022/10/15 12:56:17;;;;;;;1.97;0.60;;;17.10;99.90;;;;;;5073310;28;20457;-70
2022/10/15 12:59:04;;;;;;;1.60;0.80;;;17.30;99.90;;;;;;5077605;28;20418;-70
2022/10/15 13:01:51;;;;;;;1.40;0.60;;;17.40;99.90;;;;;;5091096;28;20662;-70
2022/10/15 13:04:18;;;;;;;1.30;0.50;;;17.60;99.90;;;;;;5083175;28;20423;-70